sensor_id;sensor_type;location;lat;lon;timestamp;P1;durP1;ratioP1;P2;durP2;ratioP2
3997;SDS011;61314;53.444;9.902;2023-08-30T00:01:05;3.47;;;3.17;;
3997;SDS011;61314;53.444;9.902;2023-08-30T00:03:32;5.10;;;3.27;;
3997;SDS011;61314;53.444;9.902;2023-08-30T00:06:03;4.40;;;4.10;;
3997;SDS011;61314;53.444;9.902;2023-08-30T00:08:31;6.57;;;3.40;;
3997;SDS011;61314;53.444;9.902;2023-08-30T00:10:58;3.40;;;3.20;;
3997;SDS011;61314;53.444;9.902;2023-08-30T00:13:25;3.30;;;3.10;;
3997;SDS011;61314;53.444;9.902;2023-08-30T00:15:53;5.50;;;2.97;;
3997;SDS011;61314;53.444;9.902;2023-08-30T00:18:20;3.50;;;3.30;;
3997;SDS011;61314;53.444;9.902;2023-08-30T00:20:47;4.13;;;3.83;;
3997;SDS011;61314;53.444;9.902;2023-08-30T00:23:14;5.07;;;4.17;;
3997;SDS011;61314;53.444;9.902;2023-08-30T00:25:42;4.00;;;3.80;;
3997;SDS011;61314;53.444;9.902;2023-08-30T00:28:10;4.93;;;4.47;;
3997;SDS011;61314;53.444;9.902;2023-08-30T00:30:37;4.03;;;3.63;;
3997;SDS011;61314;53.444;9.902;2023-08-30T00:33:04;4.90;;;4.20;;
3997;SDS011;61314;53.444;9.902;2023-08-30T00:35:31;3.97;;;3.67;;
3997;SDS011;61314;53.444;9.902;2023-08-30T00:37:58;3.83;;;3.53;;
3997;SDS011;61314;53.444;9.902;2023-08-30T00:40:26;4.40;;;4.00;;
3997;SDS011;61314;53.444;9.902;2023-08-30T00:42:53;4.13;;;3.83;;
3997;SDS011;61314;53.444;9.902;2023-08-30T00:45:20;3.93;;;3.63;;
3997;SDS011;61314;53.444;9.902;2023-08-30T00:47:47;4.47;;;3.70;;
3997;SDS011;61314;53.444;9.902;2023-08-30T00:50:14;4.30;;;4.00;;
3997;SDS011;61314;53.444;9.902;2023-08-30T00:52:42;7.13;;;4.90;;
3997;SDS011;61314;53.444;9.902;2023-08-30T00:55:09;4.57;;;4.27;;
3997;SDS011;61314;53.444;9.902;2023-08-30T00:57:37;8.10;;;5.03;;
3997;SDS011;61314;53.444;9.902;2023-08-30T01:00:04;5.17;;;4.67;;
3997;SDS011;61314;53.444;9.902;2023-08-30T01:02:32;5.03;;;4.73;;
3997;SDS011;61314;53.444;9.902;2023-08-30T01:05:01;4.87;;;4.57;;
3997;SDS011;61314;53.444;9.902;2023-08-30T01:07:29;5.60;;;4.70;;
3997;SDS011;61314;53.444;9.902;2023-08-30T01:09:56;5.73;;;5.07;;
3997;SDS011;61314;53.444;9.902;2023-08-30T01:12:24;5.20;;;4.70;;
3997;SDS011;61314;53.444;9.902;2023-08-30T01:17:30;5.60;;;5.03;;
3997;SDS011;61314;53.444;9.902;2023-08-30T01:19:58;6.37;;;5.77;;
3997;SDS011;61314;53.444;9.902;2023-08-30T01:22:47;4.40;;;4.10;;
3997;SDS011;61314;53.444;9.902;2023-08-30T01:25:23;5.33;;;4.83;;
3997;SDS011;61314;53.444;9.902;2023-08-30T01:27:52;5.63;;;5.13;;
3997;SDS011;61314;53.444;9.902;2023-08-30T01:30:20;6.30;;;5.70;;
3997;SDS011;61314;53.444;9.902;2023-08-30T01:32:47;8.17;;;4.87;;
3997;SDS011;61314;53.444;9.902;2023-08-30T01:35:15;5.13;;;4.73;;
3997;SDS011;61314;53.444;9.902;2023-08-30T01:37:45;5.13;;;4.73;;
3997;SDS011;61314;53.444;9.902;2023-08-30T01:40:13;5.10;;;4.43;;
3997;SDS011;61314;53.444;9.902;2023-08-30T01:42:41;5.70;;;5.20;;
3997;SDS011;61314;53.444;9.902;2023-08-30T01:45:10;4.90;;;4.60;;
3997;SDS011;61314;53.444;9.902;2023-08-30T01:47:39;5.97;;;5.50;;
3997;SDS011;61314;53.444;9.902;2023-08-30T01:50:08;5.50;;;5.00;;
3997;SDS011;61314;53.444;9.902;2023-08-30T01:52:36;5.80;;;5.30;;
3997;SDS011;61314;53.444;9.902;2023-08-30T01:55:03;5.70;;;5.03;;
3997;SDS011;61314;53.444;9.902;2023-08-30T01:57:30;8.80;;;5.70;;
3997;SDS011;61314;53.444;9.902;2023-08-30T01:59:57;4.93;;;4.53;;
3997;SDS011;61314;53.444;9.902;2023-08-30T02:02:28;5.60;;;5.20;;
3997;SDS011;61314;53.444;9.902;2023-08-30T02:04:55;5.27;;;4.77;;
3997;SDS011;61314;53.444;9.902;2023-08-30T02:07:25;7.67;;;5.60;;
3997;SDS011;61314;53.444;9.902;2023-08-30T02:09:56;6.53;;;4.73;;
3997;SDS011;61314;53.444;9.902;2023-08-30T02:12:24;5.23;;;4.83;;
3997;SDS011;61314;53.444;9.902;2023-08-30T02:14:55;5.70;;;5.03;;
3997;SDS011;61314;53.444;9.902;2023-08-30T02:17:22;5.23;;;4.73;;
3997;SDS011;61314;53.444;9.902;2023-08-30T02:19:50;4.90;;;4.50;;
3997;SDS011;61314;53.444;9.902;2023-08-30T02:22:19;5.10;;;4.80;;
3997;SDS011;61314;53.444;9.902;2023-08-30T02:24:46;5.17;;;4.67;;
3997;SDS011;61314;53.444;9.902;2023-08-30T02:27:13;5.30;;;4.80;;
3997;SDS011;61314;53.444;9.902;2023-08-30T02:29:41;5.63;;;5.23;;
3997;SDS011;61314;53.444;9.902;2023-08-30T02:32:08;5.33;;;4.97;;
3997;SDS011;61314;53.444;9.902;2023-08-30T02:34:35;5.50;;;5.00;;
3997;SDS011;61314;53.444;9.902;2023-08-30T02:37:03;5.10;;;4.80;;
3997;SDS011;61314;53.444;9.902;2023-08-30T02:39:30;5.87;;;5.37;;
3997;SDS011;61314;53.444;9.902;2023-08-30T02:41:57;5.77;;;5.27;;
3997;SDS011;61314;53.444;9.902;2023-08-30T02:44:24;5.47;;;5.07;;
3997;SDS011;61314;53.444;9.902;2023-08-30T02:46:51;6.00;;;5.07;;
3997;SDS011;61314;53.444;9.902;2023-08-30T02:49:18;5.47;;;5.07;;
3997;SDS011;61314;53.444;9.902;2023-08-30T02:51:45;5.47;;;5.07;;
3997;SDS011;61314;53.444;9.902;2023-08-30T02:54:12;6.00;;;5.53;;
3997;SDS011;61314;53.444;9.902;2023-08-30T02:56:40;9.63;;;6.17;;
3997;SDS011;61314;53.444;9.902;2023-08-30T02:59:08;8.13;;;6.30;;
3997;SDS011;61314;53.444;9.902;2023-08-30T03:01:36;7.33;;;6.80;;
3997;SDS011;61314;53.444;9.902;2023-08-30T03:04:04;6.77;;;6.17;;
3997;SDS011;61314;53.444;9.902;2023-08-30T03:06:34;10.77;;;7.57;;
3997;SDS011;61314;53.444;9.902;2023-08-30T03:09:02;9.83;;;8.17;;
3997;SDS011;61314;53.444;9.902;2023-08-30T03:11:29;11.70;;;7.50;;
3997;SDS011;61314;53.444;9.902;2023-08-30T03:13:56;8.77;;;7.87;;
3997;SDS011;61314;53.444;9.902;2023-08-30T03:16:23;8.17;;;7.47;;
3997;SDS011;61314;53.444;9.902;2023-08-30T03:18:51;8.57;;;7.77;;
3997;SDS011;61314;53.444;9.902;2023-08-30T03:21:18;9.20;;;7.47;;
3997;SDS011;61314;53.444;9.902;2023-08-30T03:23:45;8.87;;;7.40;;
3997;SDS011;61314;53.444;9.902;2023-08-30T03:26:13;9.10;;;8.40;;
3997;SDS011;61314;53.444;9.902;2023-08-30T03:28:40;9.03;;;8.10;;
3997;SDS011;61314;53.444;9.902;2023-08-30T03:31:14;8.43;;;7.67;;
3997;SDS011;61314;53.444;9.902;2023-08-30T03:33:42;8.87;;;8.03;;
3997;SDS011;61314;53.444;9.902;2023-08-30T03:36:11;9.07;;;8.23;;
3997;SDS011;61314;53.444;9.902;2023-08-30T03:38:38;10.73;;;8.60;;
3997;SDS011;61314;53.444;9.902;2023-08-30T03:41:06;8.80;;;7.90;;
3997;SDS011;61314;53.444;9.902;2023-08-30T03:43:33;9.07;;;8.17;;
3997;SDS011;61314;53.444;9.902;2023-08-30T03:46:00;7.60;;;7.00;;
3997;SDS011;61314;53.444;9.902;2023-08-30T03:48:29;9.07;;;8.20;;
3997;SDS011;61314;53.444;9.902;2023-08-30T03:50:56;8.20;;;7.50;;
3997;SDS011;61314;53.444;9.902;2023-08-30T03:53:23;9.47;;;8.50;;
3997;SDS011;61314;53.444;9.902;2023-08-30T03:55:51;11.47;;;7.73;;
3997;SDS011;61314;53.444;9.902;2023-08-30T03:58:18;7.73;;;7.10;;
3997;SDS011;61314;53.444;9.902;2023-08-30T04:00:46;8.83;;;8.03;;
3997;SDS011;61314;53.444;9.902;2023-08-30T04:03:14;9.67;;;8.53;;
3997;SDS011;61314;53.444;9.902;2023-08-30T04:05:42;8.30;;;7.60;;
3997;SDS011;61314;53.444;9.902;2023-08-30T04:08:10;9.37;;;8.10;;
3997;SDS011;61314;53.444;9.902;2023-08-30T04:10:38;9.83;;;8.90;;
3997;SDS011;61314;53.444;9.902;2023-08-30T04:13:05;13.20;;;7.33;;
3997;SDS011;61314;53.444;9.902;2023-08-30T04:15:34;9.40;;;8.33;;
3997;SDS011;61314;53.444;9.902;2023-08-30T04:18:02;9.47;;;8.33;;
3997;SDS011;61314;53.444;9.902;2023-08-30T04:20:29;10.60;;;9.07;;
3997;SDS011;61314;53.444;9.902;2023-08-30T04:22:57;10.93;;;8.20;;
3997;SDS011;61314;53.444;9.902;2023-08-30T04:25:24;11.67;;;8.03;;
3997;SDS011;61314;53.444;9.902;2023-08-30T04:27:51;9.93;;;8.93;;
3997;SDS011;61314;53.444;9.902;2023-08-30T04:30:18;10.80;;;9.20;;
3997;SDS011;61314;53.444;9.902;2023-08-30T04:32:46;9.47;;;8.47;;
3997;SDS011;61314;53.444;9.902;2023-08-30T04:35:13;10.17;;;9.10;;
3997;SDS011;61314;53.444;9.902;2023-08-30T04:37:40;13.93;;;10.60;;
3997;SDS011;61314;53.444;9.902;2023-08-30T04:40:09;10.63;;;8.60;;
3997;SDS011;61314;53.444;9.902;2023-08-30T04:42:36;11.47;;;9.23;;
3997;SDS011;61314;53.444;9.902;2023-08-30T04:45:04;10.60;;;9.30;;
3997;SDS011;61314;53.444;9.902;2023-08-30T04:47:31;10.97;;;9.87;;
3997;SDS011;61314;53.444;9.902;2023-08-30T04:49:59;12.93;;;10.37;;
3997;SDS011;61314;53.444;9.902;2023-08-30T04:52:26;11.00;;;9.70;;
3997;SDS011;61314;53.444;9.902;2023-08-30T04:54:53;15.37;;;9.33;;
3997;SDS011;61314;53.444;9.902;2023-08-30T04:57:20;10.30;;;9.40;;
3997;SDS011;61314;53.444;9.902;2023-08-30T04:59:47;12.80;;;11.07;;
3997;SDS011;61314;53.444;9.902;2023-08-30T05:02:14;11.57;;;9.90;;
3997;SDS011;61314;53.444;9.902;2023-08-30T05:04:41;11.73;;;10.53;;
3997;SDS011;61314;53.444;9.902;2023-08-30T05:07:08;14.77;;;8.40;;
3997;SDS011;61314;53.444;9.902;2023-08-30T05:09:35;13.00;;;10.23;;
3997;SDS011;61314;53.444;9.902;2023-08-30T05:12:02;11.83;;;10.10;;
3997;SDS011;61314;53.444;9.902;2023-08-30T05:14:30;11.20;;;9.50;;
3997;SDS011;61314;53.444;9.902;2023-08-30T05:16:57;10.07;;;9.10;;
3997;SDS011;61314;53.444;9.902;2023-08-30T05:19:24;11.73;;;10.03;;
3997;SDS011;61314;53.444;9.902;2023-08-30T05:21:51;10.23;;;9.23;;
3997;SDS011;61314;53.444;9.902;2023-08-30T05:24:21;10.87;;;9.77;;
3997;SDS011;61314;53.444;9.902;2023-08-30T05:26:48;12.13;;;9.00;;
3997;SDS011;61314;53.444;9.902;2023-08-30T05:29:15;17.03;;;10.03;;
3997;SDS011;61314;53.444;9.902;2023-08-30T05:31:43;12.50;;;9.77;;
3997;SDS011;61314;53.444;9.902;2023-08-30T05:34:10;10.93;;;9.83;;
3997;SDS011;61314;53.444;9.902;2023-08-30T05:36:38;9.50;;;8.47;;
3997;SDS011;61314;53.444;9.902;2023-08-30T05:39:05;11.23;;;9.97;;
3997;SDS011;61314;53.444;9.902;2023-08-30T05:41:32;11.40;;;10.33;;
3997;SDS011;61314;53.444;9.902;2023-08-30T05:44:00;11.63;;;10.53;;
3997;SDS011;61314;53.444;9.902;2023-08-30T05:46:27;10.33;;;9.33;;
3997;SDS011;61314;53.444;9.902;2023-08-30T05:48:54;14.37;;;9.20;;
3997;SDS011;61314;53.444;9.902;2023-08-30T05:51:21;17.80;;;10.00;;
3997;SDS011;61314;53.444;9.902;2023-08-30T05:53:48;10.47;;;9.47;;
3997;SDS011;61314;53.444;9.902;2023-08-30T05:56:15;10.77;;;9.67;;
3997;SDS011;61314;53.444;9.902;2023-08-30T05:58:43;10.13;;;9.07;;
3997;SDS011;61314;53.444;9.902;2023-08-30T06:01:10;9.23;;;8.40;;
3997;SDS011;61314;53.444;9.902;2023-08-30T06:03:37;11.23;;;10.13;;
3997;SDS011;61314;53.444;9.902;2023-08-30T06:06:04;11.03;;;9.93;;
3997;SDS011;61314;53.444;9.902;2023-08-30T06:08:32;11.47;;;10.27;;
3997;SDS011;61314;53.444;9.902;2023-08-30T06:10:59;12.20;;;10.90;;
3997;SDS011;61314;53.444;9.902;2023-08-30T06:13:26;11.47;;;10.27;;
3997;SDS011;61314;53.444;9.902;2023-08-30T06:15:53;10.63;;;9.73;;
3997;SDS011;61314;53.444;9.902;2023-08-30T06:18:20;11.90;;;10.80;;
3997;SDS011;61314;53.444;9.902;2023-08-30T06:20:47;10.47;;;9.57;;
3997;SDS011;61314;53.444;9.902;2023-08-30T06:23:18;11.53;;;10.43;;
3997;SDS011;61314;53.444;9.902;2023-08-30T06:25:53;10.80;;;9.80;;
3997;SDS011;61314;53.444;9.902;2023-08-30T06:28:20;11.17;;;10.17;;
3997;SDS011;61314;53.444;9.902;2023-08-30T06:30:47;12.10;;;10.93;;
3997;SDS011;61314;53.444;9.902;2023-08-30T06:33:14;13.77;;;10.47;;
3997;SDS011;61314;53.444;9.902;2023-08-30T06:35:41;10.80;;;9.70;;
3997;SDS011;61314;53.444;9.902;2023-08-30T06:38:08;11.27;;;10.17;;
3997;SDS011;61314;53.444;9.902;2023-08-30T06:40:36;10.93;;;8.80;;
3997;SDS011;61314;53.444;9.902;2023-08-30T06:43:03;11.23;;;10.10;;
3997;SDS011;61314;53.444;9.902;2023-08-30T06:45:30;11.23;;;9.87;;
3997;SDS011;61314;53.444;9.902;2023-08-30T06:47:58;13.80;;;11.00;;
3997;SDS011;61314;53.444;9.902;2023-08-30T06:50:25;14.93;;;11.30;;
3997;SDS011;61314;53.444;9.902;2023-08-30T06:52:52;13.03;;;10.20;;
3997;SDS011;61314;53.444;9.902;2023-08-30T06:55:19;12.70;;;11.40;;
3997;SDS011;61314;53.444;9.902;2023-08-30T06:57:47;12.03;;;10.80;;
3997;SDS011;61314;53.444;9.902;2023-08-30T07:00:14;13.00;;;11.73;;
3997;SDS011;61314;53.444;9.902;2023-08-30T07:02:41;14.00;;;11.57;;
3997;SDS011;61314;53.444;9.902;2023-08-30T07:05:12;13.77;;;12.37;;
3997;SDS011;61314;53.444;9.902;2023-08-30T07:07:39;13.50;;;10.63;;
3997;SDS011;61314;53.444;9.902;2023-08-30T07:10:06;13.50;;;12.10;;
3997;SDS011;61314;53.444;9.902;2023-08-30T07:12:34;12.47;;;10.37;;
3997;SDS011;61314;53.444;9.902;2023-08-30T07:15:01;12.67;;;11.10;;
3997;SDS011;61314;53.444;9.902;2023-08-30T07:17:29;18.03;;;12.30;;
3997;SDS011;61314;53.444;9.902;2023-08-30T07:20:15;16.27;;;14.67;;
3997;SDS011;61314;53.444;9.902;2023-08-30T07:22:42;15.77;;;14.17;;
3997;SDS011;61314;53.444;9.902;2023-08-30T07:25:10;18.77;;;15.07;;
3997;SDS011;61314;53.444;9.902;2023-08-30T07:27:38;16.57;;;14.90;;
3997;SDS011;61314;53.444;9.902;2023-08-30T07:30:05;15.03;;;13.40;;
3997;SDS011;61314;53.444;9.902;2023-08-30T07:32:32;22.47;;;15.03;;
3997;SDS011;61314;53.444;9.902;2023-08-30T07:35:00;16.93;;;15.13;;
3997;SDS011;61314;53.444;9.902;2023-08-30T07:37:28;16.40;;;14.60;;
3997;SDS011;61314;53.444;9.902;2023-08-30T07:39:55;17.37;;;14.70;;
3997;SDS011;61314;53.444;9.902;2023-08-30T07:42:22;18.50;;;14.97;;
3997;SDS011;61314;53.444;9.902;2023-08-30T07:44:49;17.07;;;13.80;;
3997;SDS011;61314;53.444;9.902;2023-08-30T07:47:16;15.30;;;13.43;;
3997;SDS011;61314;53.444;9.902;2023-08-30T07:49:43;16.93;;;14.30;;
3997;SDS011;61314;53.444;9.902;2023-08-30T07:52:10;17.43;;;14.43;;
3997;SDS011;61314;53.444;9.902;2023-08-30T07:54:39;16.37;;;14.67;;
3997;SDS011;61314;53.444;9.902;2023-08-30T07:57:06;14.93;;;13.03;;
3997;SDS011;61314;53.444;9.902;2023-08-30T07:59:35;13.60;;;11.70;;
3997;SDS011;61314;53.444;9.902;2023-08-30T08:02:03;17.53;;;12.77;;
3997;SDS011;61314;53.444;9.902;2023-08-30T08:04:33;24.23;;;13.27;;
3997;SDS011;61314;53.444;9.902;2023-08-30T08:07:01;12.53;;;9.83;;
3997;SDS011;61314;53.444;9.902;2023-08-30T08:09:29;14.27;;;11.50;;
3997;SDS011;61314;53.444;9.902;2023-08-30T08:11:56;11.27;;;9.27;;
3997;SDS011;61314;53.444;9.902;2023-08-30T08:14:23;11.80;;;9.57;;
3997;SDS011;61314;53.444;9.902;2023-08-30T08:16:51;10.00;;;9.10;;
3997;SDS011;61314;53.444;9.902;2023-08-30T08:19:18;11.73;;;9.77;;
3997;SDS011;61314;53.444;9.902;2023-08-30T08:21:50;11.80;;;8.07;;
3997;SDS011;61314;53.444;9.902;2023-08-30T08:24:20;12.53;;;8.73;;
3997;SDS011;61314;53.444;9.902;2023-08-30T08:26:47;7.77;;;6.83;;
3997;SDS011;61314;53.444;9.902;2023-08-30T08:29:14;12.40;;;9.30;;
3997;SDS011;61314;53.444;9.902;2023-08-30T08:31:41;9.87;;;8.87;;
3997;SDS011;61314;53.444;9.902;2023-08-30T08:34:09;13.43;;;8.33;;
3997;SDS011;61314;53.444;9.902;2023-08-30T08:36:40;11.83;;;7.70;;
3997;SDS011;61314;53.444;9.902;2023-08-30T08:39:08;8.80;;;7.90;;
3997;SDS011;61314;53.444;9.902;2023-08-30T08:41:38;8.97;;;8.07;;
3997;SDS011;61314;53.444;9.902;2023-08-30T08:44:06;9.60;;;8.60;;
3997;SDS011;61314;53.444;9.902;2023-08-30T08:46:36;10.37;;;9.27;;
3997;SDS011;61314;53.444;9.902;2023-08-30T08:49:09;11.17;;;8.40;;
3997;SDS011;61314;53.444;9.902;2023-08-30T08:51:37;14.30;;;7.70;;
3997;SDS011;61314;53.444;9.902;2023-08-30T08:54:05;8.70;;;7.90;;
3997;SDS011;61314;53.444;9.902;2023-08-30T08:56:33;9.63;;;8.63;;
3997;SDS011;61314;53.444;9.902;2023-08-30T08:59:00;8.73;;;7.83;;
3997;SDS011;61314;53.444;9.902;2023-08-30T09:01:27;8.90;;;8.10;;
3997;SDS011;61314;53.444;9.902;2023-08-30T09:04:04;8.40;;;6.87;;
3997;SDS011;61314;53.444;9.902;2023-08-30T09:06:34;8.73;;;7.87;;
3997;SDS011;61314;53.444;9.902;2023-08-30T09:09:01;7.43;;;6.60;;
3997;SDS011;61314;53.444;9.902;2023-08-30T09:11:30;7.23;;;5.90;;
3997;SDS011;61314;53.444;9.902;2023-08-30T09:14:16;9.47;;;6.27;;
3997;SDS011;61314;53.444;9.902;2023-08-30T09:16:53;7.13;;;5.60;;
3997;SDS011;61314;53.444;9.902;2023-08-30T09:19:21;10.07;;;5.77;;
3997;SDS011;61314;53.444;9.902;2023-08-30T09:21:54;8.27;;;6.60;;
3997;SDS011;61314;53.444;9.902;2023-08-30T09:24:22;6.10;;;5.60;;
3997;SDS011;61314;53.444;9.902;2023-08-30T09:26:50;6.63;;;5.70;;
3997;SDS011;61314;53.444;9.902;2023-08-30T09:29:18;6.20;;;5.60;;
3997;SDS011;61314;53.444;9.902;2023-08-30T09:31:45;6.57;;;5.20;;
3997;SDS011;61314;53.444;9.902;2023-08-30T09:34:12;5.50;;;4.70;;
3997;SDS011;61314;53.444;9.902;2023-08-30T09:36:41;6.07;;;5.47;;
3997;SDS011;61314;53.444;9.902;2023-08-30T09:39:09;10.27;;;6.13;;
3997;SDS011;61314;53.444;9.902;2023-08-30T09:41:37;7.10;;;4.67;;
3997;SDS011;61314;53.444;9.902;2023-08-30T09:44:13;9.63;;;5.30;;
3997;SDS011;61314;53.444;9.902;2023-08-30T09:46:45;8.27;;;4.90;;
3997;SDS011;61314;53.444;9.902;2023-08-30T09:49:17;6.57;;;6.07;;
3997;SDS011;61314;53.444;9.902;2023-08-30T09:51:45;6.93;;;5.70;;
3997;SDS011;61314;53.444;9.902;2023-08-30T09:54:14;6.73;;;5.57;;
3997;SDS011;61314;53.444;9.902;2023-08-30T09:57:02;6.43;;;5.37;;
3997;SDS011;61314;53.444;9.902;2023-08-30T09:59:29;9.47;;;4.77;;
3997;SDS011;61314;53.444;9.902;2023-08-30T10:01:56;6.50;;;5.83;;
3997;SDS011;61314;53.444;9.902;2023-08-30T10:04:24;12.53;;;5.17;;
3997;SDS011;61314;53.444;9.902;2023-08-30T10:06:51;5.63;;;5.00;;
3997;SDS011;61314;53.444;9.902;2023-08-30T10:09:19;7.43;;;5.03;;
3997;SDS011;61314;53.444;9.902;2023-08-30T10:11:46;4.70;;;4.30;;
3997;SDS011;61314;53.444;9.902;2023-08-30T10:14:14;15.77;;;4.60;;
3997;SDS011;61314;53.444;9.902;2023-08-30T10:16:45;5.60;;;5.00;;
3997;SDS011;61314;53.444;9.902;2023-08-30T10:19:14;4.83;;;4.47;;
3997;SDS011;61314;53.444;9.902;2023-08-30T10:21:44;5.20;;;4.00;;
3997;SDS011;61314;53.444;9.902;2023-08-30T10:24:15;6.30;;;5.37;;
3997;SDS011;61314;53.444;9.902;2023-08-30T10:26:59;7.47;;;5.90;;
3997;SDS011;61314;53.444;9.902;2023-08-30T10:29:27;5.50;;;5.00;;
3997;SDS011;61314;53.444;9.902;2023-08-30T10:31:55;4.77;;;4.37;;
3997;SDS011;61314;53.444;9.902;2023-08-30T10:34:22;5.97;;;4.17;;
3997;SDS011;61314;53.444;9.902;2023-08-30T10:36:58;8.10;;;3.63;;
3997;SDS011;61314;53.444;9.902;2023-08-30T10:39:32;6.60;;;4.13;;
3997;SDS011;61314;53.444;9.902;2023-08-30T10:42:00;5.97;;;5.47;;
3997;SDS011;61314;53.444;9.902;2023-08-30T10:44:27;4.50;;;4.10;;
3997;SDS011;61314;53.444;9.902;2023-08-30T10:46:55;4.40;;;4.10;;
3997;SDS011;61314;53.444;9.902;2023-08-30T10:49:22;4.73;;;4.10;;
3997;SDS011;61314;53.444;9.902;2023-08-30T10:51:56;4.00;;;3.70;;
3997;SDS011;61314;53.444;9.902;2023-08-30T10:54:24;6.17;;;4.37;;
3997;SDS011;61314;53.444;9.902;2023-08-30T10:59:19;5.80;;;4.07;;
3997;SDS011;61314;53.444;9.902;2023-08-30T11:01:46;4.53;;;4.23;;
3997;SDS011;61314;53.444;9.902;2023-08-30T11:04:15;6.00;;;4.50;;
3997;SDS011;61314;53.444;9.902;2023-08-30T11:06:46;5.67;;;5.17;;
3997;SDS011;61314;53.444;9.902;2023-08-30T11:09:14;6.90;;;4.77;;
3997;SDS011;61314;53.444;9.902;2023-08-30T11:11:47;5.57;;;5.07;;
3997;SDS011;61314;53.444;9.902;2023-08-30T11:14:14;5.33;;;4.83;;
3997;SDS011;61314;53.444;9.902;2023-08-30T11:16:41;6.17;;;5.10;;
3997;SDS011;61314;53.444;9.902;2023-08-30T11:19:09;5.67;;;5.00;;
3997;SDS011;61314;53.444;9.902;2023-08-30T11:21:38;10.20;;;5.70;;
3997;SDS011;61314;53.444;9.902;2023-08-30T11:24:06;8.07;;;5.13;;
3997;SDS011;61314;53.444;9.902;2023-08-30T11:26:33;5.90;;;5.40;;
3997;SDS011;61314;53.444;9.902;2023-08-30T11:29:04;6.10;;;5.50;;
3997;SDS011;61314;53.444;9.902;2023-08-30T11:31:32;7.60;;;5.10;;
3997;SDS011;61314;53.444;9.902;2023-08-30T11:33:59;5.50;;;5.00;;
3997;SDS011;61314;53.444;9.902;2023-08-30T11:36:27;9.70;;;5.27;;
3997;SDS011;61314;53.444;9.902;2023-08-30T11:38:55;7.50;;;6.20;;
3997;SDS011;61314;53.444;9.902;2023-08-30T11:41:23;9.03;;;6.37;;
3997;SDS011;61314;53.444;9.902;2023-08-30T11:43:50;7.97;;;6.07;;
3997;SDS011;61314;53.444;9.902;2023-08-30T11:46:18;6.40;;;5.60;;
3997;SDS011;61314;53.444;9.902;2023-08-30T11:48:46;5.70;;;5.10;;
3997;SDS011;61314;53.444;9.902;2023-08-30T11:51:14;6.67;;;5.47;;
3997;SDS011;61314;53.444;9.902;2023-08-30T11:53:41;5.27;;;4.77;;
3997;SDS011;61314;53.444;9.902;2023-08-30T11:56:08;7.67;;;5.37;;
3997;SDS011;61314;53.444;9.902;2023-08-30T11:58:36;7.83;;;5.07;;
3997;SDS011;61314;53.444;9.902;2023-08-30T12:01:03;9.97;;;5.80;;
3997;SDS011;61314;53.444;9.902;2023-08-30T12:03:31;6.53;;;5.27;;
3997;SDS011;61314;53.444;9.902;2023-08-30T12:05:58;8.47;;;5.40;;
3997;SDS011;61314;53.444;9.902;2023-08-30T12:08:27;7.67;;;5.00;;
3997;SDS011;61314;53.444;9.902;2023-08-30T12:10:54;6.30;;;5.80;;
3997;SDS011;61314;53.444;9.902;2023-08-30T12:13:25;4.87;;;4.47;;
3997;SDS011;61314;53.444;9.902;2023-08-30T12:15:52;5.80;;;4.37;;
3997;SDS011;61314;53.444;9.902;2023-08-30T12:18:23;5.20;;;4.63;;
3997;SDS011;61314;53.444;9.902;2023-08-30T12:20:57;6.00;;;5.40;;
3997;SDS011;61314;53.444;9.902;2023-08-30T12:23:25;5.10;;;4.60;;
3997;SDS011;61314;53.444;9.902;2023-08-30T12:25:59;5.67;;;4.27;;
3997;SDS011;61314;53.444;9.902;2023-08-30T12:28:27;5.97;;;4.87;;
3997;SDS011;61314;53.444;9.902;2023-08-30T12:30:54;5.10;;;4.20;;
3997;SDS011;61314;53.444;9.902;2023-08-30T12:33:22;6.13;;;4.20;;
3997;SDS011;61314;53.444;9.902;2023-08-30T12:35:49;6.60;;;5.10;;
3997;SDS011;61314;53.444;9.902;2023-08-30T12:38:16;3.50;;;3.20;;
3997;SDS011;61314;53.444;9.902;2023-08-30T12:40:46;5.20;;;4.30;;
3997;SDS011;61314;53.444;9.902;2023-08-30T12:43:14;4.80;;;4.30;;
3997;SDS011;61314;53.444;9.902;2023-08-30T12:45:41;4.43;;;4.13;;
3997;SDS011;61314;53.444;9.902;2023-08-30T12:48:09;4.90;;;4.40;;
3997;SDS011;61314;53.444;9.902;2023-08-30T12:50:37;6.60;;;4.70;;
3997;SDS011;61314;53.444;9.902;2023-08-30T12:53:05;6.60;;;4.70;;
3997;SDS011;61314;53.444;9.902;2023-08-30T12:55:33;4.50;;;4.10;;
3997;SDS011;61314;53.444;9.902;2023-08-30T12:58:07;5.63;;;4.63;;
3997;SDS011;61314;53.444;9.902;2023-08-30T13:00:34;4.83;;;4.17;;
3997;SDS011;61314;53.444;9.902;2023-08-30T13:03:02;6.43;;;5.00;;
3997;SDS011;61314;53.444;9.902;2023-08-30T13:05:29;4.57;;;4.13;;
3997;SDS011;61314;53.444;9.902;2023-08-30T13:07:58;8.07;;;4.40;;
3997;SDS011;61314;53.444;9.902;2023-08-30T13:10:25;4.23;;;3.87;;
3997;SDS011;61314;53.444;9.902;2023-08-30T13:12:53;6.17;;;4.90;;
3997;SDS011;61314;53.444;9.902;2023-08-30T13:15:20;6.17;;;4.00;;
3997;SDS011;61314;53.444;9.902;2023-08-30T13:17:47;5.17;;;4.63;;
3997;SDS011;61314;53.444;9.902;2023-08-30T13:20:14;4.73;;;4.30;;
3997;SDS011;61314;53.444;9.902;2023-08-30T13:22:41;4.10;;;3.70;;
3997;SDS011;61314;53.444;9.902;2023-08-30T13:25:08;7.27;;;4.20;;
3997;SDS011;61314;53.444;9.902;2023-08-30T13:27:35;4.13;;;3.77;;
3997;SDS011;61314;53.444;9.902;2023-08-30T13:30:02;4.07;;;3.70;;
3997;SDS011;61314;53.444;9.902;2023-08-30T13:32:30;4.23;;;3.70;;
3997;SDS011;61314;53.444;9.902;2023-08-30T13:34:57;4.10;;;3.40;;
3997;SDS011;61314;53.444;9.902;2023-08-30T13:37:25;4.53;;;4.13;;
3997;SDS011;61314;53.444;9.902;2023-08-30T13:39:52;4.70;;;4.03;;
3997;SDS011;61314;53.444;9.902;2023-08-30T13:42:20;7.83;;;3.30;;
3997;SDS011;61314;53.444;9.902;2023-08-30T13:44:49;5.10;;;3.73;;
3997;SDS011;61314;53.444;9.902;2023-08-30T13:47:17;6.57;;;4.37;;
3997;SDS011;61314;53.444;9.902;2023-08-30T13:49:45;4.40;;;3.87;;
3997;SDS011;61314;53.444;9.902;2023-08-30T13:52:12;3.83;;;3.40;;
3997;SDS011;61314;53.444;9.902;2023-08-30T13:54:39;4.10;;;3.70;;
3997;SDS011;61314;53.444;9.902;2023-08-30T13:57:06;5.57;;;3.83;;
3997;SDS011;61314;53.444;9.902;2023-08-30T13:59:33;4.17;;;3.50;;
3997;SDS011;61314;53.444;9.902;2023-08-30T14:02:02;4.50;;;3.57;;
3997;SDS011;61314;53.444;9.902;2023-08-30T14:04:30;4.90;;;4.27;;
3997;SDS011;61314;53.444;9.902;2023-08-30T14:07:03;5.80;;;4.07;;
3997;SDS011;61314;53.444;9.902;2023-08-30T14:09:30;9.30;;;3.50;;
3997;SDS011;61314;53.444;9.902;2023-08-30T14:11:57;7.10;;;4.23;;
3997;SDS011;61314;53.444;9.902;2023-08-30T14:14:24;3.47;;;3.27;;
3997;SDS011;61314;53.444;9.902;2023-08-30T14:16:51;4.03;;;3.70;;
3997;SDS011;61314;53.444;9.902;2023-08-30T14:19:18;4.40;;;3.67;;
3997;SDS011;61314;53.444;9.902;2023-08-30T14:21:45;3.73;;;3.33;;
3997;SDS011;61314;53.444;9.902;2023-08-30T14:24:13;4.40;;;3.30;;
3997;SDS011;61314;53.444;9.902;2023-08-30T14:26:40;4.30;;;3.90;;
3997;SDS011;61314;53.444;9.902;2023-08-30T14:29:07;3.97;;;3.67;;
3997;SDS011;61314;53.444;9.902;2023-08-30T14:31:34;4.70;;;3.70;;
3997;SDS011;61314;53.444;9.902;2023-08-30T14:34:02;5.97;;;3.90;;
3997;SDS011;61314;53.444;9.902;2023-08-30T14:36:29;4.10;;;3.60;;
3997;SDS011;61314;53.444;9.902;2023-08-30T14:38:56;3.87;;;3.60;;
3997;SDS011;61314;53.444;9.902;2023-08-30T14:41:23;3.97;;;3.23;;
3997;SDS011;61314;53.444;9.902;2023-08-30T14:43:50;6.63;;;3.70;;
3997;SDS011;61314;53.444;9.902;2023-08-30T14:46:18;5.10;;;4.27;;
3997;SDS011;61314;53.444;9.902;2023-08-30T14:48:49;4.50;;;3.37;;
3997;SDS011;61314;53.444;9.902;2023-08-30T14:51:16;4.73;;;3.60;;
3997;SDS011;61314;53.444;9.902;2023-08-30T14:53:43;4.43;;;3.50;;
3997;SDS011;61314;53.444;9.902;2023-08-30T14:56:10;3.50;;;3.20;;
3997;SDS011;61314;53.444;9.902;2023-08-30T14:58:37;3.83;;;2.90;;
3997;SDS011;61314;53.444;9.902;2023-08-30T15:01:05;3.70;;;3.40;;
3997;SDS011;61314;53.444;9.902;2023-08-30T15:03:32;3.73;;;3.43;;
3997;SDS011;61314;53.444;9.902;2023-08-30T15:05:59;4.23;;;3.40;;